Time,TemperatureF,DewpointF,PressureIn,WindDirection,WindDirectionDegrees,WindSpeedMPH,WindSpeedGustMPH,Humidity,HourlyPrecipIn,Conditions,Clouds,dailyrainin,SoftwareType,DateUTC
2013-06-20 00:02:00,60.8,-29.0,29.74,West,265,15.0,15.0,2,0.00,,,0.00,weatherlink.com 1.10,2013-06-20 07:02:00,
2013-06-20 00:17:00,61.2,-29.0,29.73,WNW,297,6.0,15.0,2,0.00,,,0.00,weatherlink.com 1.10,2013-06-20 07:17:00,
2013-06-20 00:32:00,61.3,-21.0,29.73,WNW,294,6.0,16.0,3,0.00,,,0.00,weatherlink.com 1.10,2013-06-20 07:32:00,
2013-06-20 00:47:00,61.0,-15.0,29.73,WNW,293,10.0,15.0,4,0.00,,,0.00,weatherlink.com 1.10,2013-06-20 07:47:00,
2013-06-20 01:02:00,60.5,-4.0,29.72,WSW,250,7.0,14.0,7,0.00,,,0.00,weatherlink.com 1.10,2013-06-20 08:02:00,
2013-06-20 01:17:00,60.2,-2.0,29.72,WNW,283,7.0,13.0,8,0.00,,,0.00,weatherlink.com 1.10,2013-06-20 08:17:00,
2013-06-20 01:32:00,60.5,5.0,29.72,West,281,8.0,18.0,11,0.00,,,0.00,weatherlink.com 1.10,2013-06-20 08:32:00,
2013-06-20 01:47:00,59.6,12.0,29.71,WNW,286,6.0,14.0,15,0.00,,,0.00,weatherlink.com 1.10,2013-06-20 08:47:00,
2013-06-20 02:02:00,59.3,10.0,29.71,WNW,293,5.0,11.0,14,0.00,,,0.00,weatherlink.com 1.10,2013-06-20 09:02:00,
2013-06-20 02:17:00,58.3,12.0,29.71,WNW,292,5.0,12.0,16,0.00,,,0.00,weatherlink.com 1.10,2013-06-20 09:17:00,
2013-06-20 02:32:00,58.0,9.0,29.71,WNW,294,7.0,11.0,14,0.00,,,0.00,weatherlink.com 1.10,2013-06-20 09:32:00,
2013-06-20 02:48:00,58.2,2.0,29.70,WNW,292,5.0,11.0,10,0.00,,,0.00,weatherlink.com 1.10,2013-06-20 09:48:00,
2013-06-20 03:03:00,58.7,-3.0,29.70,NW,312,7.0,11.0,8,0.00,,,0.00,weatherlink.com 1.10,2013-06-20 10:03:00,
2013-06-20 03:18:00,57.9,-6.0,29.70,NNW,328,3.0,9.0,7,0.00,,,0.00,weatherlink.com 1.10,2013-06-20 10:18:00,
2013-06-20 03:33:00,57.6,-13.0,29.71,NNW,331,5.0,13.0,5,0.00,,,0.00,weatherlink.com 1.10,2013-06-20 10:33:00,
2013-06-20 03:48:00,57.8,-13.0,29.71,NW,311,6.0,10.0,5,0.00,,,0.00,weatherlink.com 1.10,2013-06-20 10:48:00,
2013-06-20 04:03:00,57.7,-10.0,29.70,West,275,5.0,13.0,6,0.00,,,0.00,weatherlink.com 1.10,2013-06-20 11:03:00,
2013-06-20 04:18:00,58.9,-6.0,29.71,NW,321,7.0,12.0,7,0.00,,,0.00,weatherlink.com 1.10,2013-06-20 11:18:00,
2013-06-20 04:33:00,59.4,3.0,29.71,NW,306,3.0,13.0,10,0.00,,,0.00,weatherlink.com 1.10,2013-06-20 11:33:00,
2013-06-20 04:48:00,58.9,8.0,29.70,WNW,290,4.0,13.0,13,0.00,,,0.00,weatherlink.com 1.10,2013-06-20 11:48:00,
2013-06-20 05:03:00,58.9,8.0,29.70,WNW,298,5.0,11.0,13,0.00,,,0.00,weatherlink.com 1.10,2013-06-20 12:03:00,
2013-06-20 05:18:00,58.3,9.0,29.71,NW,305,3.0,10.0,14,0.00,,,0.00,weatherlink.com 1.10,2013-06-20 12:18:00,
2013-06-20 05:33:00,58.3,7.0,29.71,NW,304,3.0,10.0,13,0.00,,,0.00,weatherlink.com 1.10,2013-06-20 12:33:00,
2013-06-20 05:48:00,58.4,9.0,29.71,WNW,302,7.0,11.0,14,0.00,,,0.00,weatherlink.com 1.10,2013-06-20 12:48:00,
2013-06-20 06:03:00,58.9,0.0,29.72,NW,308,3.0,9.0,9,0.00,,,0.00,weatherlink.com 1.10,2013-06-20 13:03:00,
2013-06-20 06:19:00,60.0,-2.0,29.72,NW,321,9.0,11.0,8,0.00,,,0.00,weatherlink.com 1.10,2013-06-20 13:19:00,
2013-06-20 06:34:00,60.5,5.0,29.72,NW,326,5.0,10.0,11,0.00,,,0.00,weatherlink.com 1.10,2013-06-20 13:34:00,
2013-06-20 06:49:00,62.5,7.0,29.73,West,279,6.0,10.0,11,0.00,,,0.00,weatherlink.com 1.10,2013-06-20 13:49:00,
2013-06-20 07:04:00,64.5,4.0,29.73,NW,323,4.0,11.0,9,0.00,,,0.00,weatherlink.com 1.10,2013-06-20 14:04:00,
2013-06-20 07:19:00,65.9,8.0,29.73,NW,317,7.0,12.0,10,0.00,,,0.00,weatherlink.com 1.10,2013-06-20 14:19:00,
2013-06-20 07:34:00,66.9,11.0,29.74,NW,309,1.0,12.0,11,0.00,,,0.00,weatherlink.com 1.10,2013-06-20 14:34:00,
2013-06-20 07:49:00,67.9,9.0,29.74,West,267,2.0,14.0,10,0.00,,,0.00,weatherlink.com 1.10,2013-06-20 14:49:00,
2013-06-20 08:04:00,68.9,5.0,29.75,NW,326,5.0,14.0,8,0.00,,,0.00,weatherlink.com 1.10,2013-06-20 15:04:00,
2013-06-20 08:19:00,69.6,6.0,29.75,NW,310,8.0,12.0,8,0.00,,,0.00,weatherlink.com 1.10,2013-06-20 15:19:00,
2013-06-20 08:34:00,70.0,-1.0,29.75,WNW,284,6.0,14.0,6,0.00,,,0.00,weatherlink.com 1.10,2013-06-20 15:34:00,
2013-06-20 08:49:00,70.7,0.0,29.76,WNW,292,5.0,16.0,6,0.00,,,0.00,weatherlink.com 1.10,2013-06-20 15:49:00,
2013-06-20 09:04:00,70.6,-4.0,29.76,WNW,286,5.0,14.0,5,0.00,,,0.00,weatherlink.com 1.10,2013-06-20 16:04:00,
2013-06-20 09:19:00,71.2,0.0,29.75,WSW,249,13.0,13.0,6,0.00,,,0.00,weatherlink.com 1.10,2013-06-20 16:19:00,
2013-06-20 09:34:00,72.3,1.0,29.76,WNW,299,6.0,11.0,6,0.00,,,0.00,weatherlink.com 1.10,2013-06-20 16:34:00,
2013-06-20 09:50:00,73.6,6.0,29.76,West,263,3.0,11.0,7,0.00,,,0.00,weatherlink.com 1.10,2013-06-20 16:50:00,
2013-06-20 10:05:00,73.9,-2.0,29.77,West,264,5.0,11.0,5,0.00,,,0.00,weatherlink.com 1.10,2013-06-20 17:05:00,
2013-06-20 10:20:00,74.5,-1.0,29.77,West,263,4.0,11.0,5,0.00,,,0.00,weatherlink.com 1.10,2013-06-20 17:20:00,
2013-06-20 10:35:00,74.8,-1.0,29.77,WNW,294,9.0,10.0,5,0.00,,,0.00,weatherlink.com 1.10,2013-06-20 17:35:00,
2013-06-20 10:50:00,76.3,4.0,29.78,NW,325,2.0,12.0,6,0.00,,,0.00,weatherlink.com 1.10,2013-06-20 17:50:00,
2013-06-20 11:05:00,77.7,5.0,29.78,NNW,331,5.0,11.0,6,0.00,,,0.00,weatherlink.com 1.10,2013-06-20 18:05:00,
2013-06-20 11:20:00,78.5,9.0,29.78,North,9,6.0,11.0,7,0.00,,,0.00,weatherlink.com 1.10,2013-06-20 18:20:00,
2013-06-20 11:35:00,78.3,12.0,29.78,NW,306,7.0,10.0,8,0.00,,,0.00,weatherlink.com 1.10,2013-06-20 18:35:00,
2013-06-20 11:50:00,79.0,20.0,29.78,West,280,2.0,9.0,11,0.00,,,0.00,weatherlink.com 1.10,2013-06-20 18:50:00,
2013-06-20 12:05:00,79.9,19.0,29.78,NW,320,3.0,9.0,10,0.00,,,0.00,weatherlink.com 1.10,2013-06-20 19:05:00,
2013-06-20 12:20:00,80.3,19.0,29.78,SSW,194,2.0,11.0,10,0.00,,,0.00,weatherlink.com 1.10,2013-06-20 19:20:00,
2013-06-20 12:35:00,81.0,17.0,29.78,South,178,8.0,9.0,9,0.00,,,0.00,weatherlink.com 1.10,2013-06-20 19:35:00,
2013-06-20 12:50:00,81.0,17.0,29.78,West,274,3.0,10.0,9,0.00,,,0.00,weatherlink.com 1.10,2013-06-20 19:50:00,
2013-06-20 13:05:00,80.5,17.0,29.77,NE,40,4.0,7.0,9,0.00,,,0.00,weatherlink.com 1.10,2013-06-20 20:05:00,
2013-06-20 13:21:00,82.8,21.0,29.77,South,189,5.0,9.0,10,0.00,,,0.00,weatherlink.com 1.10,2013-06-20 20:21:00,
2013-06-20 13:36:00,83.7,22.0,29.77,SSE,159,4.0,8.0,10,0.00,,,0.00,weatherlink.com 1.10,2013-06-20 20:36:00,
2013-06-20 13:51:00,83.0,21.0,29.77,West,280,5.0,9.0,10,0.00,,,0.00,weatherlink.com 1.10,2013-06-20 20:51:00,
2013-06-20 14:06:00,82.8,29.0,29.77,SW,221,5.0,8.0,14,0.00,,,0.00,weatherlink.com 1.10,2013-06-20 21:06:00,
2013-06-20 14:21:00,81.5,28.0,29.76,WNW,297,6.0,9.0,14,0.00,,,0.00,weatherlink.com 1.10,2013-06-20 21:21:00,
2013-06-20 14:36:00,80.5,29.0,29.76,WNW,291,5.0,9.0,15,0.00,,,0.00,weatherlink.com 1.10,2013-06-20 21:36:00,
2013-06-20 14:51:00,81.2,34.0,29.76,NW,315,11.0,17.0,18,0.00,,,0.00,weatherlink.com 1.10,2013-06-20 21:51:00,
2013-06-20 15:06:00,81.9,33.0,29.76,SW,232,4.0,10.0,17,0.00,,,0.00,weatherlink.com 1.10,2013-06-20 22:06:00,
2013-06-20 15:21:00,81.2,34.0,29.75,WNW,300,4.0,10.0,18,0.00,,,0.00,weatherlink.com 1.10,2013-06-20 22:21:00,
2013-06-20 15:36:00,80.9,35.0,29.75,WSW,252,5.0,10.0,19,0.00,,,0.00,weatherlink.com 1.10,2013-06-20 22:36:00,
2013-06-20 15:51:00,80.7,37.0,29.75,WSW,248,6.0,12.0,21,0.00,,,0.00,weatherlink.com 1.10,2013-06-20 22:51:00,
2013-06-20 16:06:00,79.8,35.0,29.74,WSW,242,11.0,11.0,20,0.00,,,0.00,weatherlink.com 1.10,2013-06-20 23:06:00,
2013-06-20 16:21:00,77.5,38.0,29.74,WNW,296,6.0,11.0,24,0.00,,,0.00,weatherlink.com 1.10,2013-06-20 23:21:00,
2013-06-20 16:37:00,77.5,40.0,29.74,WSW,254,7.0,11.0,26,0.00,,,0.00,weatherlink.com 1.10,2013-06-20 23:37:00,
2013-06-20 16:52:00,76.8,40.0,29.73,West,260,4.0,12.0,27,0.00,,,0.00,weatherlink.com 1.10,2013-06-20 23:52:00,
2013-06-20 17:07:00,76.8,40.0,29.73,WSW,245,4.0,10.0,27,0.00,,,0.00,weatherlink.com 1.10,2013-06-21 00:07:00,
2013-06-20 17:22:00,75.3,37.0,29.73,WSW,256,2.0,10.0,25,0.00,,,0.00,weatherlink.com 1.10,2013-06-21 00:22:00,
2013-06-20 17:37:00,75.0,36.0,29.73,West,265,4.0,9.0,24,0.00,,,0.00,weatherlink.com 1.10,2013-06-21 00:37:00,
2013-06-20 17:52:00,75.5,37.0,29.73,West,272,4.0,8.0,25,0.00,,,0.00,weatherlink.com 1.10,2013-06-21 00:52:00,
2013-06-20 18:07:00,73.8,38.0,29.73,WSW,241,6.0,11.0,27,0.00,,,0.00,weatherlink.com 1.10,2013-06-21 01:07:00,
2013-06-20 18:22:00,71.8,39.0,29.73,WSW,245,4.0,10.0,31,0.00,,,0.00,weatherlink.com 1.10,2013-06-21 01:22:00,
2013-06-20 18:37:00,70.6,38.0,29.73,SSW,211,3.0,9.0,31,0.00,,,0.00,weatherlink.com 1.10,2013-06-21 01:37:00,
2013-06-20 18:52:00,68.9,40.0,29.73,NW,304,3.0,10.0,35,0.00,,,0.00,weatherlink.com 1.10,2013-06-21 01:52:00,
2013-06-20 19:07:00,67.2,38.0,29.73,West,271,4.0,8.0,34,0.00,,,0.00,weatherlink.com 1.10,2013-06-21 02:07:00,
2013-06-20 19:22:00,66.0,35.0,29.73,WNW,290,3.0,7.0,32,0.00,,,0.00,weatherlink.com 1.10,2013-06-21 02:22:00,
2013-06-20 19:37:00,62.9,30.0,29.74,WSW,254,3.0,9.0,29,0.00,,,0.00,weatherlink.com 1.10,2013-06-21 02:37:00,
2013-06-20 19:52:00,61.8,26.0,29.74,NW,307,2.0,10.0,26,0.00,,,0.00,weatherlink.com 1.10,2013-06-21 02:52:00,
2013-06-20 20:08:00,60.4,23.0,29.74,WNW,289,5.0,9.0,24,0.00,,,0.00,weatherlink.com 1.10,2013-06-21 03:08:00,
2013-06-20 20:23:00,60.0,20.0,29.74,West,277,3.0,8.0,21,0.00,,,0.00,weatherlink.com 1.10,2013-06-21 03:23:00,
2013-06-20 20:38:00,59.7,18.0,29.75,NW,305,6.0,9.0,20,0.00,,,0.00,weatherlink.com 1.10,2013-06-21 03:38:00,
2013-06-20 20:53:00,59.8,18.0,29.75,West,280,4.0,7.0,20,0.00,,,0.00,weatherlink.com 1.10,2013-06-21 03:53:00,
2013-06-20 21:08:00,59.7,17.0,29.76,West,269,5.0,8.0,19,0.00,,,0.00,weatherlink.com 1.10,2013-06-21 04:08:00,
2013-06-20 21:23:00,59.6,16.0,29.76,WNW,284,3.0,9.0,18,0.00,,,0.00,weatherlink.com 1.10,2013-06-21 04:23:00,
2013-06-20 21:53:00,60.0,15.0,29.77,WNW,287,6.0,11.0,17,0.00,,,0.00,weatherlink.com 1.10,2013-06-21 04:53:00,
2013-06-20 22:08:00,59.9,13.0,29.77,West,262,4.0,10.0,16,0.00,,,0.00,weatherlink.com 1.10,2013-06-21 05:08:00,
2013-06-20 22:23:00,59.9,9.0,29.77,WNW,290,4.0,11.0,13,0.00,,,0.00,weatherlink.com 1.10,2013-06-21 05:23:00,
2013-06-20 22:38:00,59.7,12.0,29.77,West,276,6.0,10.0,15,0.00,,,0.00,weatherlink.com 1.10,2013-06-21 05:38:00,
2013-06-20 22:53:00,60.4,12.0,29.77,West,277,6.0,15.0,15,0.00,,,0.00,weatherlink.com 1.10,2013-06-21 05:53:00,
2013-06-20 23:08:00,60.7,13.0,29.77,West,266,5.0,14.0,15,0.00,,,0.00,weatherlink.com 1.10,2013-06-21 06:08:00,
2013-06-20 23:23:00,60.9,13.0,29.77,NW,309,5.0,15.0,15,0.00,,,0.00,weatherlink.com 1.10,2013-06-21 06:23:00,
2013-06-20 23:39:00,60.5,14.0,29.76,West,274,4.0,13.0,16,0.00,,,0.00,weatherlink.com 1.10,2013-06-21 06:39:00,
2013-06-20 23:54:00,59.6,13.0,29.76,NW,306,8.0,13.0,16,0.00,,,0.00,weatherlink.com 1.10,2013-06-21 06:54:00,